createdAt,value
2019-01-28T00:00:16.278Z,65.21
2019-01-28T00:02:45.148Z,65.25
2019-01-28T00:05:13.494Z,65.25
2019-01-28T00:07:41.884Z,65.18
2019-01-28T00:10:10.220Z,65.09
2019-01-28T00:12:39.161Z,65.17
2019-01-28T00:15:08.450Z,65.27
2019-01-28T00:17:36.987Z,64.96
2019-01-28T00:20:06.790Z,65.05
2019-01-28T00:22:35.137Z,65.15
2019-01-28T00:25:03.594Z,65.11
2019-01-28T00:27:31.936Z,65.17
2019-01-28T00:30:00.285Z,65.11
2019-01-28T00:32:28.652Z,65.23
2019-01-28T00:34:57.005Z,65.34
2019-01-28T00:37:25.371Z,65.24
2019-01-28T00:39:53.727Z,65.22
2019-01-28T00:42:22.075Z,64.99
2019-01-28T00:44:50.432Z,64.82
2019-01-28T00:47:18.773Z,64.91
2019-01-28T00:49:47.151Z,65.16
2019-01-28T00:52:15.518Z,65.21
2019-01-28T00:54:43.947Z,65.25
2019-01-28T00:57:12.414Z,65.25
2019-01-28T00:59:40.832Z,64.99
2019-01-28T01:02:10.015Z,65.17
2019-01-28T01:04:38.388Z,65.46
2019-01-28T01:07:06.735Z,65.36
2019-01-28T01:09:35.082Z,65.11
2019-01-28T01:12:03.443Z,64.88
2019-01-28T01:14:31.829Z,64.64
2019-01-28T01:17:00.225Z,64.51
2019-01-28T01:19:28.559Z,64.51
2019-01-28T01:21:56.909Z,64.43
2019-01-28T01:24:25.365Z,64.31
2019-01-28T01:26:53.712Z,64.25
2019-01-28T01:29:22.077Z,64.00
2019-01-28T01:31:52.114Z,63.88
2019-01-28T01:34:20.894Z,63.78
2019-01-28T01:36:49.255Z,63.88
2019-01-28T01:39:17.613Z,63.83
2019-01-28T01:41:46.320Z,63.78
2019-01-28T01:44:14.682Z,63.67
2019-01-28T01:46:43.030Z,63.71
2019-01-28T01:49:11.406Z,63.66
2019-01-28T01:51:39.775Z,63.80
2019-01-28T01:54:08.157Z,63.77
2019-01-28T01:56:36.499Z,63.73
2019-01-28T01:59:04.920Z,63.97
2019-01-28T02:01:33.329Z,64.23
2019-01-28T02:04:01.740Z,64.16
2019-01-28T02:06:30.085Z,64.10
2019-01-28T02:08:58.467Z,63.98
2019-01-28T02:11:26.808Z,63.78
2019-01-28T02:13:55.152Z,63.68
2019-01-28T02:16:23.520Z,63.62
2019-01-28T02:18:51.873Z,63.48
2019-01-28T02:21:20.388Z,63.36
2019-01-28T02:23:48.908Z,63.38
2019-01-28T02:26:17.293Z,63.42
2019-01-28T02:28:45.634Z,63.32
2019-01-28T02:31:13.972Z,63.34
2019-01-28T02:33:42.331Z,63.28
2019-01-28T02:36:10.769Z,63.27
2019-01-28T02:38:39.129Z,63.23
2019-01-28T02:41:07.660Z,63.18
2019-01-28T02:43:36.006Z,63.21
2019-01-28T02:46:04.372Z,63.31
2019-01-28T02:48:33.103Z,63.47
2019-01-28T02:51:01.711Z,63.37
2019-01-28T02:53:30.102Z,63.32
2019-01-28T02:55:58.447Z,63.31
2019-01-28T02:58:26.797Z,63.32
2019-01-28T03:00:56.158Z,63.15
2019-01-28T03:03:24.521Z,62.97
2019-01-28T03:05:52.914Z,62.88
2019-01-28T03:08:21.221Z,62.90
2019-01-28T03:10:49.568Z,62.90
2019-01-28T03:13:19.557Z,62.97
2019-01-28T03:15:47.930Z,62.99
2019-01-28T03:18:16.278Z,62.99
2019-01-28T03:20:44.624Z,63.15
2019-01-28T03:23:13.029Z,63.32
2019-01-28T03:25:41.373Z,63.42
2019-01-28T03:28:09.751Z,63.42
2019-01-28T03:30:38.577Z,63.41
2019-01-28T03:33:06.912Z,63.58
2019-01-28T03:35:35.269Z,63.78
2019-01-28T03:38:03.646Z,64.03
2019-01-28T03:40:32.006Z,64.30
2019-01-28T03:43:00.366Z,64.62
2019-01-28T03:45:28.712Z,64.70
2019-01-28T03:47:57.053Z,64.52
2019-01-28T03:50:25.441Z,64.29
2019-01-28T03:52:53.775Z,64.11
2019-01-28T03:55:22.125Z,63.83
2019-01-28T03:57:50.496Z,63.52
2019-01-28T04:00:20.831Z,63.26
2019-01-28T04:02:49.185Z,63.07
2019-01-28T04:05:17.560Z,63.12
2019-01-28T04:07:45.963Z,63.18
2019-01-28T04:10:17.114Z,63.18
2019-01-28T04:12:45.513Z,63.56
2019-01-28T04:15:16.220Z,63.66
2019-01-28T04:17:44.574Z,63.62
2019-01-28T04:20:14.965Z,63.55
2019-01-28T04:22:43.306Z,63.60
2019-01-28T04:25:12.515Z,63.73
2019-01-28T04:27:40.846Z,63.55
2019-01-28T04:30:12.523Z,63.56
2019-01-28T04:32:40.859Z,63.41
2019-01-28T04:35:09.395Z,63.60
2019-01-28T04:37:37.746Z,63.53
2019-01-28T04:40:09.241Z,63.86
2019-01-28T04:42:37.604Z,63.87
2019-01-28T04:45:14.717Z,63.75
2019-01-28T04:47:43.205Z,63.80
2019-01-28T04:50:16.523Z,63.81
2019-01-28T04:52:44.983Z,63.75
2019-01-28T04:55:14.287Z,63.52
2019-01-28T04:57:42.661Z,63.35
2019-01-28T05:00:23.186Z,63.29
2019-01-28T05:02:51.755Z,63.17
2019-01-28T05:05:20.186Z,63.06
2019-01-28T05:07:48.562Z,63.05
2019-01-28T05:10:19.107Z,63.25
2019-01-28T05:12:47.467Z,63.36
2019-01-28T05:15:17.460Z,63.36
2019-01-28T05:17:45.828Z,63.35
2019-01-28T05:20:19.678Z,63.37
2019-01-28T05:22:48.343Z,63.24
2019-01-28T05:25:17.424Z,63.18
2019-01-28T05:27:46.328Z,63.06
2019-01-28T05:30:19.792Z,63.28
2019-01-28T05:32:48.165Z,63.37
2019-01-28T05:35:18.001Z,63.60
2019-01-28T05:37:46.484Z,63.42
2019-01-28T05:40:19.479Z,63.26
2019-01-28T05:42:47.819Z,63.46
2019-01-28T05:45:17.513Z,63.39
2019-01-28T05:47:45.880Z,63.19
2019-01-28T05:50:14.983Z,63.12
2019-01-28T05:52:43.369Z,63.28
2019-01-28T05:55:14.397Z,63.29
2019-01-28T05:57:42.765Z,63.46
2019-01-28T06:00:36.939Z,63.51
2019-01-28T06:03:05.398Z,63.53
2019-01-28T06:05:33.754Z,63.54
2019-01-28T06:08:02.111Z,63.43
2019-01-28T06:10:30.510Z,63.75
2019-01-28T06:12:58.857Z,63.57
2019-01-28T06:15:27.856Z,63.55
2019-01-28T06:17:56.203Z,63.58
2019-01-28T06:20:26.508Z,63.38
2019-01-28T06:22:54.865Z,63.04
2019-01-28T06:25:23.235Z,62.97
2019-01-28T06:27:51.612Z,62.94
2019-01-28T06:30:28.340Z,62.87
2019-01-28T06:32:56.720Z,62.98
2019-01-28T06:35:25.096Z,63.16
2019-01-28T06:37:53.494Z,63.40
2019-01-28T06:40:27.083Z,63.58
2019-01-28T06:42:55.594Z,63.51
2019-01-28T06:45:24.074Z,63.53
2019-01-28T06:47:52.446Z,63.53
2019-01-28T06:50:22.043Z,63.35
2019-01-28T06:52:50.561Z,63.09
2019-01-28T06:55:19.350Z,62.94
2019-01-28T06:57:48.231Z,62.87
2019-01-28T07:00:19.796Z,62.77
2019-01-28T07:02:48.336Z,62.80
2019-01-28T07:05:16.786Z,62.70
2019-01-28T07:07:45.301Z,62.72
2019-01-28T07:10:13.929Z,62.70
2019-01-28T07:12:42.266Z,62.60
2019-01-28T07:15:12.600Z,62.43
2019-01-28T07:17:41.010Z,62.40
2019-01-28T07:20:18.309Z,62.47
2019-01-28T07:22:46.657Z,62.49
2019-01-28T07:25:15.050Z,62.59
2019-01-28T07:27:43.428Z,62.73
2019-01-28T07:30:15.029Z,62.56
2019-01-28T07:32:43.366Z,62.63
2019-01-28T07:35:12.869Z,62.52
2019-01-28T07:37:41.304Z,62.51
2019-01-28T07:40:14.694Z,62.58
2019-01-28T07:42:43.066Z,62.62
2019-01-28T07:45:17.590Z,62.46
2019-01-28T07:47:46.226Z,62.33
2019-01-28T07:50:14.943Z,62.21
2019-01-28T07:52:43.300Z,62.15
2019-01-28T07:55:13.291Z,62.10
2019-01-28T07:57:41.856Z,62.17
2019-01-28T08:00:13.514Z,62.14
2019-01-28T08:02:41.891Z,62.02
2019-01-28T08:05:12.171Z,61.94
2019-01-28T08:07:40.555Z,61.94
2019-01-28T08:10:11.763Z,61.92
2019-01-28T08:12:40.107Z,61.92
2019-01-28T08:15:11.656Z,61.89
2019-01-28T08:17:40.008Z,62.09
2019-01-28T08:20:11.745Z,62.27
2019-01-28T08:22:40.277Z,62.21
2019-01-28T08:25:11.374Z,62.23
2019-01-28T08:27:39.816Z,62.34
2019-01-28T08:30:11.456Z,62.31
2019-01-28T08:32:39.858Z,62.22
2019-01-28T08:35:09.890Z,62.28
2019-01-28T08:37:38.311Z,62.44
2019-01-28T08:40:10.045Z,62.51
2019-01-28T08:42:38.381Z,62.45
2019-01-28T08:45:11.841Z,62.30
2019-01-28T08:47:40.188Z,62.37
2019-01-28T08:50:25.894Z,62.38
2019-01-28T08:52:54.319Z,62.32
2019-01-28T08:55:25.451Z,62.25
2019-01-28T08:57:54.244Z,62.33
2019-01-28T09:00:34.519Z,62.43
2019-01-28T09:03:02.910Z,62.31
2019-01-28T09:05:31.265Z,62.24
2019-01-28T09:07:59.598Z,62.37
2019-01-28T09:10:29.180Z,62.42
2019-01-28T09:12:57.597Z,62.32
2019-01-28T09:15:25.997Z,62.09
2019-01-28T09:17:54.411Z,62.24
2019-01-28T09:20:28.238Z,62.08
2019-01-28T09:22:56.876Z,62.02
2019-01-28T09:25:25.218Z,62.08
2019-01-28T09:27:53.579Z,62.32
2019-01-28T09:30:26.978Z,62.45
2019-01-28T09:32:55.451Z,62.68
2019-01-28T09:35:23.861Z,62.86
2019-01-28T09:37:52.241Z,63.08
2019-01-28T09:40:26.143Z,62.83
2019-01-28T09:42:54.771Z,62.70
2019-01-28T09:45:28.701Z,62.99
2019-01-28T09:47:57.384Z,63.07
2019-01-28T09:50:25.956Z,63.19
2019-01-28T09:52:54.312Z,62.87
2019-01-28T09:55:22.658Z,62.59
2019-01-28T09:57:51.010Z,62.36
2019-01-28T10:00:26.508Z,62.16
2019-01-28T10:02:55.207Z,61.89
2019-01-28T10:05:23.574Z,61.81
2019-01-28T10:07:51.922Z,61.88
2019-01-28T10:10:21.053Z,62.00
2019-01-28T10:12:49.411Z,62.05
2019-01-28T10:15:19.792Z,61.98
2019-01-28T10:17:48.153Z,62.12
2019-01-28T10:20:28.222Z,62.24
2019-01-28T10:22:56.580Z,62.25
2019-01-28T10:25:24.954Z,62.26
2019-01-28T10:27:53.289Z,62.35
2019-01-28T10:30:32.830Z,62.41
2019-01-28T10:33:01.285Z,62.20
2019-01-28T10:35:30.683Z,62.21
2019-01-28T10:37:59.060Z,62.21
2019-01-28T10:40:29.935Z,62.23
2019-01-28T10:42:58.286Z,62.05
2019-01-28T10:45:26.665Z,61.96
2019-01-28T10:48:00.507Z,62.09
2019-01-28T10:50:26.554Z,61.99
2019-01-28T10:52:55.432Z,61.99
2019-01-28T10:55:24.963Z,61.93
2019-01-28T10:57:53.318Z,61.93
2019-01-28T11:00:27.633Z,61.90
2019-01-28T11:02:56.649Z,61.95
2019-01-28T11:05:24.993Z,62.36
2019-01-28T11:07:53.395Z,62.32
2019-01-28T11:10:23.976Z,61.87
2019-01-28T11:12:52.449Z,61.62
2019-01-28T11:15:25.973Z,61.55
2019-01-28T11:17:54.390Z,61.81
2019-01-28T11:20:23.102Z,61.77
2019-01-28T11:22:51.476Z,61.48
2019-01-28T11:25:22.325Z,61.54
2019-01-28T11:27:52.327Z,61.49
2019-01-28T11:30:31.096Z,61.65
2019-01-28T11:32:59.513Z,61.89
2019-01-28T11:35:27.851Z,62.08
2019-01-28T11:37:57.028Z,62.16
2019-01-28T11:40:25.511Z,62.12
2019-01-28T11:42:54.028Z,62.21
2019-01-28T11:45:28.324Z,62.36
2019-01-28T11:47:57.049Z,62.63
2019-01-28T11:50:25.416Z,62.63
2019-01-28T11:52:53.855Z,62.84
2019-01-28T11:55:22.196Z,63.22
2019-01-28T11:57:50.684Z,63.56
2019-01-28T12:00:32.828Z,63.69
2019-01-28T12:03:01.188Z,63.56
2019-01-28T12:05:29.583Z,63.39
2019-01-28T12:07:57.957Z,63.08
2019-01-28T12:10:26.346Z,62.95
2019-01-28T12:12:54.867Z,62.77
2019-01-28T12:15:23.392Z,62.64
2019-01-28T12:17:51.785Z,62.77
2019-01-28T12:20:20.584Z,62.84
2019-01-28T12:22:48.940Z,62.87
2019-01-28T12:25:17.469Z,62.91
2019-01-28T12:27:45.824Z,63.19
2019-01-28T12:30:25.844Z,63.27
2019-01-28T12:32:54.246Z,63.15
2019-01-28T12:35:22.609Z,63.27
2019-01-28T12:37:51.014Z,63.41
2019-01-28T12:40:20.859Z,63.64
2019-01-28T12:42:49.199Z,64.10
2019-01-28T12:45:22.122Z,64.48
2019-01-28T12:47:50.962Z,64.94
2019-01-28T12:50:20.970Z,65.02
2019-01-28T12:52:49.317Z,65.21
2019-01-28T12:55:19.427Z,65.29
2019-01-28T12:57:47.942Z,65.44
2019-01-28T13:00:32.611Z,65.50
2019-01-28T13:03:01.292Z,65.51
2019-01-28T13:05:29.670Z,65.79
2019-01-28T13:07:58.084Z,65.87
2019-01-28T13:10:26.967Z,65.56
2019-01-28T13:12:55.396Z,65.59
2019-01-28T13:15:31.472Z,65.64
2019-01-28T13:17:59.818Z,65.38
2019-01-28T13:20:28.277Z,65.36
2019-01-28T13:22:56.619Z,65.30
2019-01-28T13:25:27.983Z,64.71
2019-01-28T13:27:56.359Z,64.63
2019-01-28T13:30:27.134Z,64.68
2019-01-28T13:32:56.063Z,64.84
2019-01-28T13:35:25.055Z,64.78
2019-01-28T13:37:53.478Z,64.50
2019-01-28T13:40:21.819Z,64.54
2019-01-28T13:42:50.599Z,64.75
2019-01-28T13:45:20.565Z,64.95
2019-01-28T13:47:49.596Z,64.74
2019-01-28T13:50:23.943Z,65.18
2019-01-28T13:52:52.658Z,65.44
2019-01-28T13:55:22.338Z,65.80
2019-01-28T13:57:50.693Z,65.29
2019-01-28T14:00:24.747Z,65.50
2019-01-28T14:02:53.618Z,65.06
2019-01-28T14:05:21.989Z,65.04
2019-01-28T14:07:50.397Z,65.23
2019-01-28T14:10:20.471Z,65.45
2019-01-28T14:12:48.921Z,66.05
2019-01-28T14:15:20.532Z,65.76
2019-01-28T14:17:49.221Z,65.76
2019-01-28T14:20:22.240Z,65.38
2019-01-28T14:22:50.568Z,64.96
2019-01-28T14:25:19.008Z,65.32
2019-01-28T14:27:49.672Z,65.32
2019-01-28T14:30:23.609Z,65.62
2019-01-28T14:32:52.309Z,65.70
2019-01-28T14:35:20.659Z,65.41
2019-01-28T14:37:49.056Z,65.24
2019-01-28T14:40:22.656Z,65.86
2019-01-28T14:42:51.009Z,65.96
2019-01-28T14:45:19.452Z,66.17
2019-01-28T14:47:47.798Z,65.99
2019-01-28T14:50:22.016Z,65.52
2019-01-28T14:52:50.667Z,65.23
2019-01-28T14:55:18.996Z,65.74
2019-01-28T14:57:47.404Z,65.74
2019-01-28T15:00:19.155Z,65.91
2019-01-28T15:02:47.503Z,65.36
2019-01-28T15:05:15.890Z,65.35
2019-01-28T15:07:44.244Z,65.02
2019-01-28T15:10:15.526Z,65.49
2019-01-28T15:12:44.451Z,65.57
2019-01-28T15:15:15.900Z,65.97
2019-01-28T15:17:44.673Z,65.83
2019-01-28T15:20:13.181Z,65.19
2019-01-28T15:22:41.538Z,65.11
2019-01-28T15:25:12.620Z,65.02
2019-01-28T15:27:40.984Z,64.81
2019-01-28T15:30:12.803Z,64.81
2019-01-28T15:32:41.181Z,64.70
2019-01-28T15:35:11.409Z,65.03
2019-01-28T15:37:39.798Z,64.81
2019-01-28T15:40:14.608Z,65.01
2019-01-28T15:42:42.958Z,65.38
2019-01-28T15:45:14.857Z,65.48
2019-01-28T15:47:43.266Z,65.70
2019-01-28T15:50:13.973Z,66.22
2019-01-28T15:52:42.401Z,66.13
2019-01-28T15:55:13.730Z,66.13
2019-01-28T15:57:42.187Z,66.10
2019-01-28T16:00:16.448Z,66.22
2019-01-28T16:02:45.111Z,66.38
2019-01-28T16:05:13.460Z,66.39
2019-01-28T16:07:41.841Z,66.09
2019-01-28T16:10:13.450Z,66.29
2019-01-28T16:12:41.830Z,66.48
2019-01-28T16:15:13.474Z,66.73
2019-01-28T16:17:41.858Z,67.25
2019-01-28T16:20:18.476Z,66.84
2019-01-28T16:22:42.251Z,67.20
2019-01-28T16:25:12.204Z,67.26
2019-01-28T16:27:40.605Z,67.39
2019-01-28T16:30:18.094Z,67.18
2019-01-28T16:32:47.185Z,67.68
2019-01-28T16:35:17.991Z,67.02
2019-01-28T16:37:46.357Z,66.52
2019-01-28T16:40:17.235Z,66.60
2019-01-28T16:42:45.637Z,66.95
2019-01-28T16:45:16.052Z,66.87
2019-01-28T16:47:44.429Z,66.52
2019-01-28T16:50:26.775Z,66.55
2019-01-28T16:52:51.016Z,66.50
2019-01-28T16:55:19.401Z,66.52
2019-01-28T16:57:47.792Z,66.50
2019-01-28T17:00:27.458Z,66.36
2019-01-28T17:02:55.836Z,66.57
2019-01-28T17:05:24.172Z,65.94
2019-01-28T17:07:52.564Z,66.46
2019-01-28T17:10:20.905Z,66.78
2019-01-28T17:12:49.293Z,65.99
2019-01-28T17:15:19.175Z,65.74
2019-01-28T17:17:47.531Z,65.99
2019-01-28T17:20:18.926Z,67.06
2019-01-28T17:22:47.818Z,66.73
2019-01-28T17:25:19.352Z,67.51
2019-01-28T17:27:47.703Z,67.67
2019-01-28T17:30:30.753Z,68.44
2019-01-28T17:32:59.190Z,68.45
2019-01-28T17:35:29.528Z,68.05
2019-01-28T17:37:57.892Z,68.01
2019-01-28T17:40:28.951Z,67.81
2019-01-28T17:42:57.329Z,67.92
2019-01-28T17:45:26.879Z,68.04
2019-01-28T17:47:55.263Z,67.93
2019-01-28T17:50:25.076Z,67.83
2019-01-28T17:52:53.373Z,67.60
2019-01-28T17:55:21.748Z,67.30
2019-01-28T17:57:50.089Z,67.71
2019-01-28T18:00:29.318Z,67.72
2019-01-28T18:02:52.004Z,68.25
2019-01-28T18:05:20.373Z,68.25
2019-01-28T18:07:48.759Z,68.02
2019-01-28T18:10:17.497Z,67.56
2019-01-28T18:12:45.908Z,67.46
2019-01-28T18:15:23.109Z,67.25
2019-01-28T18:17:51.465Z,67.78
2019-01-28T18:20:20.109Z,67.88
2019-01-28T18:22:48.454Z,68.05
2019-01-28T18:25:19.246Z,67.71
2019-01-28T18:27:47.636Z,67.96
2019-01-28T18:30:40.438Z,68.02
2019-01-28T18:33:08.799Z,67.25
2019-01-28T18:35:37.165Z,67.40
2019-01-28T18:38:05.954Z,67.04
2019-01-28T18:40:34.320Z,67.21
2019-01-28T18:43:02.672Z,67.22
2019-01-28T18:45:31.050Z,67.09
2019-01-28T18:47:59.410Z,67.05
2019-01-28T18:50:27.804Z,66.91
2019-01-28T18:52:56.123Z,66.76
2019-01-28T18:55:24.520Z,67.25
2019-01-28T18:57:52.892Z,67.41
2019-01-28T19:00:24.500Z,67.80
2019-01-28T19:02:53.524Z,67.51
2019-01-28T19:05:23.509Z,67.36
2019-01-28T19:07:53.480Z,67.28
2019-01-28T19:10:23.544Z,67.13
2019-01-28T19:12:53.523Z,67.37
2019-01-28T19:15:23.513Z,67.16
2019-01-28T19:17:53.536Z,67.27
2019-01-28T19:20:26.067Z,67.05
2019-01-28T19:22:54.505Z,66.84
2019-01-28T19:25:22.900Z,67.15
2019-01-28T19:27:51.289Z,67.24
2019-01-28T19:30:19.651Z,67.52
2019-01-28T19:32:47.991Z,67.13
2019-01-28T19:35:16.343Z,67.04
2019-01-28T19:37:44.695Z,66.26
2019-01-28T19:40:13.877Z,66.40
2019-01-28T19:42:42.523Z,66.42
2019-01-28T19:45:17.648Z,66.33
2019-01-28T19:47:46.217Z,66.63
2019-01-28T19:50:17.417Z,66.78
2019-01-28T19:52:45.814Z,67.11
2019-01-28T19:55:15.481Z,67.44
2019-01-28T19:57:43.836Z,67.66
2019-01-28T20:00:15.503Z,67.20
2019-01-28T20:02:43.848Z,67.36
2019-01-28T20:05:12.359Z,67.48
2019-01-28T20:07:40.751Z,67.98
2019-01-28T20:10:11.345Z,67.51
2019-01-28T20:12:39.761Z,68.23
2019-01-28T20:15:11.645Z,67.89
2019-01-28T20:17:40.010Z,67.63
2019-01-28T20:20:11.824Z,67.57
2019-01-28T20:22:40.181Z,67.85
2019-01-28T20:25:11.188Z,67.70
2019-01-28T20:27:39.554Z,67.40
2019-01-28T20:30:16.831Z,67.62
2019-01-28T20:32:45.269Z,67.37
2019-01-28T20:35:14.555Z,67.37
2019-01-28T20:37:43.000Z,67.35
2019-01-28T20:40:13.187Z,67.39
2019-01-28T20:42:41.532Z,67.92
2019-01-28T20:45:27.974Z,68.66
2019-01-28T20:47:56.346Z,68.03
2019-01-28T20:50:26.979Z,67.83
2019-01-28T20:52:55.353Z,67.92
2019-01-28T20:55:23.793Z,67.81
2019-01-28T20:57:52.154Z,67.95
2019-01-28T21:00:25.529Z,67.74
2019-01-28T21:02:53.966Z,67.91
2019-01-28T21:05:23.353Z,67.49
2019-01-28T21:07:51.651Z,67.32
2019-01-28T21:10:21.384Z,67.43
2019-01-28T21:12:50.601Z,67.26
2019-01-28T21:15:19.295Z,66.73
2019-01-28T21:17:48.388Z,66.78
2019-01-28T21:20:18.566Z,66.69
2019-01-28T21:22:47.378Z,66.96
2019-01-28T21:25:17.771Z,67.08
2019-01-28T21:27:46.128Z,67.18
2019-01-28T21:30:26.077Z,67.00
2019-01-28T21:32:54.426Z,67.03
2019-01-28T21:35:29.239Z,67.38
2019-01-28T21:38:01.553Z,66.97
2019-01-28T21:40:29.896Z,71.04
2019-01-28T21:42:58.430Z,67.69
2019-01-28T21:45:26.889Z,67.18
2019-01-28T21:47:55.580Z,67.17
2019-01-28T21:50:27.799Z,67.10
2019-01-28T21:52:56.185Z,67.08
2019-01-28T21:55:24.564Z,67.35
2019-01-28T21:57:52.936Z,67.37
2019-01-28T22:00:21.596Z,67.21
2019-01-28T22:02:50.011Z,67.18
2019-01-28T22:05:18.409Z,67.00
2019-01-28T22:07:46.750Z,67.37
2019-01-28T22:10:15.690Z,67.29
2019-01-28T22:12:44.073Z,67.34
2019-01-28T22:15:17.104Z,67.32
2019-01-28T22:17:45.454Z,67.36
2019-01-28T22:20:15.370Z,67.76
2019-01-28T22:22:43.710Z,68.12
2019-01-28T22:25:16.329Z,68.27
2019-01-28T22:27:44.806Z,68.55
2019-01-28T22:30:20.431Z,68.78
2019-01-28T22:32:48.822Z,68.83
2019-01-28T22:35:17.220Z,68.94
2019-01-28T22:37:45.581Z,68.78
2019-01-28T22:40:16.872Z,68.90
2019-01-28T22:42:45.261Z,68.86
2019-01-28T22:45:18.660Z,68.70
2019-01-28T22:47:46.986Z,68.67
2019-01-28T22:50:18.213Z,68.93
2019-01-28T22:52:46.661Z,69.16
2019-01-28T22:55:16.757Z,69.17
2019-01-28T22:57:45.130Z,69.30
2019-01-28T23:00:23.903Z,69.29
2019-01-28T23:02:52.292Z,69.29
2019-01-28T23:05:20.656Z,69.01
2019-01-28T23:07:49.009Z,69.28
2019-01-28T23:10:17.408Z,69.36
2019-01-28T23:12:45.765Z,69.06
2019-01-28T23:15:14.127Z,68.98
2019-01-28T23:17:42.655Z,69.10
2019-01-28T23:20:11.186Z,68.89
2019-01-28T23:22:39.566Z,68.87
2019-01-28T23:25:07.902Z,69.28
2019-01-28T23:27:36.265Z,69.36
2019-01-28T23:30:07.526Z,69.32
2019-01-28T23:32:35.954Z,69.59
2019-01-28T23:35:07.084Z,69.24
2019-01-28T23:37:35.461Z,69.15
2019-01-28T23:40:10.126Z,69.14
2019-01-28T23:42:38.756Z,69.32
2019-01-28T23:45:12.251Z,69.35
2019-01-28T23:47:40.972Z,69.49
2019-01-28T23:50:13.605Z,69.45
2019-01-28T23:52:41.963Z,69.44
2019-01-28T23:55:10.607Z,69.74
2019-01-28T23:57:38.956Z,69.52
